Time;durP1;ratioP1;P1;durP2;ratioP2;P2;SDS_P1;SDS_P2;PMS_P1;PMS_P2;Temp;Humidity;BMP_temperature;BMP_pressure;BME280_temperature;BME280_humidity;BME280_pressure;Samples;Min_cycle;Max_cycle;Signal;HPM_P1;HPM_P2
2021/07/18 00:01:06;;;;;;;3.28;1.90;;;22.00;73.10;;;;;;5096886;28;20121;-73
2021/07/18 00:03:33;;;;;;;2.15;1.83;;;22.00;73.10;;;;;;5096740;28;20047;-73
2021/07/18 00:06:00;;;;;;;3.65;1.85;;;22.00;73.10;;;;;;5096730;28;20036;-73
2021/07/18 00:08:25;;;;;;;3.25;1.92;;;22.00;73.10;;;;;;5096813;28;20047;-73
2021/07/18 00:10:52;;;;;;;2.78;1.70;;;22.00;73.10;;;;;;5097300;28;20040;-73
2021/07/18 00:13:19;;;;;;;3.63;1.90;;;21.90;73.10;;;;;;5096462;28;20048;-72
2021/07/18 00:15:46;;;;;;;3.25;2.05;;;22.00;73.20;;;;;;5096537;28;20035;-73
2021/07/18 00:18:12;;;;;;;3.60;2.10;;;22.00;73.10;;;;;;5096758;28;20068;-73
2021/07/18 00:20:38;;;;;;;3.28;2.22;;;21.90;73.00;;;;;;5096255;28;20058;-73
2021/07/18 00:23:04;;;;;;;5.13;2.30;;;22.00;73.10;;;;;;5096751;28;20040;-73
2021/07/18 00:25:32;;;;;;;4.13;2.08;;;22.00;73.10;;;;;;5096378;28;20093;-73
2021/07/18 00:27:59;;;;;;;4.30;2.40;;;22.00;73.20;;;;;;5096422;28;20067;-73
2021/07/18 00:30:25;;;;;;;4.38;1.92;;;22.00;73.20;;;;;;5096802;28;20040;-73
2021/07/18 00:32:51;;;;;;;3.15;2.33;;;22.00;73.20;;;;;;5095952;28;20097;-73
2021/07/18 00:35:17;;;;;;;4.85;2.40;;;21.90;73.10;;;;;;5096355;28;20435;-73
2021/07/18 00:37:42;;;;;;;3.30;2.22;;;21.90;73.20;;;;;;5096023;28;20381;-73
2021/07/18 00:40:09;;;;;;;4.10;2.15;;;21.90;73.10;;;;;;5096259;28;20101;-73
2021/07/18 00:42:36;;;;;;;3.67;2.33;;;21.90;73.10;;;;;;5095897;28;20097;-73
2021/07/18 00:45:04;;;;;;;4.53;2.25;;;21.90;73.10;;;;;;5096352;28;20118;-73
2021/07/18 00:47:31;;;;;;;2.67;1.88;;;21.90;73.10;;;;;;5096541;28;20036;-73
2021/07/18 00:49:59;;;;;;;3.17;2.33;;;21.90;73.10;;;;;;5095850;28;20044;-73
2021/07/18 00:52:25;;;;;;;3.25;2.05;;;21.90;73.10;;;;;;5096593;28;20370;-72
2021/07/18 00:54:50;;;;;;;3.05;1.90;;;21.90;73.10;;;;;;5095572;28;20052;-73
2021/07/18 00:57:17;;;;;;;5.32;2.20;;;21.90;73.10;;;;;;5095949;28;20125;-73
2021/07/18 00:59:44;;;;;;;6.47;2.45;;;21.90;73.10;;;;;;5095698;28;20043;-73
2021/07/18 01:02:10;;;;;;;3.08;2.25;;;21.90;73.20;;;;;;5095935;28;20040;-73
2021/07/18 01:04:36;;;;;;;2.78;1.98;;;21.90;73.20;;;;;;5096464;28;20046;-72
2021/07/18 01:07:02;;;;;;;5.88;2.15;;;21.90;73.20;;;;;;5095982;28;20481;-73
2021/07/18 01:09:28;;;;;;;3.15;1.75;;;21.90;73.10;;;;;;5095606;28;20090;-73
2021/07/18 01:11:53;;;;;;;3.00;1.70;;;21.90;73.20;;;;;;5095926;28;20406;-73
2021/07/18 01:14:19;;;;;;;3.58;1.90;;;21.90;73.10;;;;;;5095434;28;20044;-73
2021/07/18 01:16:45;;;;;;;3.10;1.95;;;21.90;73.10;;;;;;5096006;28;20048;-73
2021/07/18 01:19:13;;;;;;;3.85;1.88;;;21.90;73.20;;;;;;5095593;28;20071;-73
2021/07/18 01:21:41;;;;;;;3.58;1.70;;;21.90;73.10;;;;;;5095458;28;20036;-73
2021/07/18 01:24:07;;;;;;;3.03;1.90;;;21.90;73.10;;;;;;5095666;28;20044;-73
2021/07/18 01:26:33;;;;;;;4.45;2.40;;;21.90;73.10;;;;;;5094965;28;20044;-73
2021/07/18 01:29:00;;;;;;;4.03;1.92;;;21.80;73.10;;;;;;5095478;28;20059;-73
2021/07/18 01:31:26;;;;;;;3.53;2.25;;;21.90;73.10;;;;;;5094406;28;20044;-73
2021/07/18 01:33:52;;;;;;;3.53;1.98;;;21.90;73.20;;;;;;5095418;28;20055;-73
2021/07/18 01:36:18;;;;;;;3.10;1.98;;;21.90;73.20;;;;;;5095250;28;20067;-73
2021/07/18 01:38:44;;;;;;;3.33;1.83;;;21.90;73.20;;;;;;5095124;28;20071;-72
2021/07/18 01:41:10;;;;;;;3.33;1.88;;;21.80;73.20;;;;;;5095389;28;20140;-73
2021/07/18 01:43:36;;;;;;;2.80;2.17;;;21.80;73.20;;;;;;5095931;28;20044;-73
2021/07/18 01:46:02;;;;;;;2.80;1.90;;;21.90;73.20;;;;;;5095451;28;20446;-73
2021/07/18 01:48:28;;;;;;;3.08;1.92;;;21.90;73.20;;;;;;5095476;28;20048;-73
2021/07/18 01:50:56;;;;;;;4.18;2.30;;;21.80;73.20;;;;;;5094921;28;20048;-73
2021/07/18 01:53:21;;;;;;;3.03;1.67;;;21.80;73.20;;;;;;5095191;28;20085;-73
2021/07/18 01:55:53;;;;;;;4.07;2.30;;;21.80;73.20;;;;;;5095341;28;20127;-72
2021/07/18 01:58:23;;;;;;;3.63;1.80;;;21.80;73.20;;;;;;5094963;28;20040;-73
2021/07/18 02:00:49;;;;;;;2.58;1.70;;;21.80;73.20;;;;;;5095208;28;20040;-72
2021/07/18 02:03:14;;;;;;;3.42;1.70;;;21.80;73.20;;;;;;5095306;28;20063;-73
2021/07/18 02:05:40;;;;;;;3.55;2.35;;;21.80;73.20;;;;;;5095716;28;20044;-73
2021/07/18 02:08:06;;;;;;;2.90;2.25;;;21.80;73.20;;;;;;5095076;28;20048;-73
2021/07/18 02:10:32;;;;;;;3.33;2.25;;;21.80;73.30;;;;;;5095442;28;20458;-73
2021/07/18 02:12:57;;;;;;;2.90;1.83;;;21.80;73.30;;;;;;5094925;28;20063;-73
2021/07/18 02:15:23;;;;;;;3.33;1.88;;;21.80;73.30;;;;;;5094632;28;20059;-73
2021/07/18 02:17:49;;;;;;;3.75;2.22;;;21.80;73.30;;;;;;5095000;28;20252;-73
2021/07/18 02:20:18;;;;;;;3.22;2.15;;;21.80;73.20;;;;;;5094729;28;20040;-73
2021/07/18 02:22:53;;;;;;;3.08;1.83;;;21.80;73.20;;;;;;5094757;28;20067;-73
2021/07/18 02:25:21;;;;;;;4.93;1.95;;;21.80;73.20;;;;;;5094854;28;20040;-72
2021/07/18 02:27:48;;;;;;;2.10;1.90;;;21.80;73.20;;;;;;5094766;28;20048;-73
2021/07/18 02:30:18;;;;;;;2.38;1.63;;;21.80;73.20;;;;;;5095420;28;20166;-73
2021/07/18 02:32:44;;;;;;;4.03;1.60;;;21.80;73.20;;;;;;5094766;28;20386;-73
2021/07/18 02:35:12;;;;;;;4.00;1.90;;;21.80;73.20;;;;;;5094318;28;20040;-73
2021/07/18 02:37:39;;;;;;;4.40;2.10;;;21.80;73.20;;;;;;5094385;28;20449;-73
2021/07/18 02:40:06;;;;;;;3.38;1.85;;;21.80;73.20;;;;;;5094504;28;20075;-72
2021/07/18 02:42:32;;;;;;;2.60;1.80;;;21.80;73.20;;;;;;5095028;28;20052;-72
2021/07/18 02:44:58;;;;;;;2.38;1.88;;;21.80;73.30;;;;;;5098545;28;20096;-73
2021/07/18 02:47:24;;;;;;;5.03;1.70;;;21.80;73.30;;;;;;5097642;28;20048;-73
2021/07/18 02:49:50;;;;;;;3.70;1.67;;;21.80;73.30;;;;;;5098114;28;20435;-73
2021/07/18 02:52:16;;;;;;;2.65;1.63;;;21.80;73.30;;;;;;5098133;28;20121;-73
2021/07/18 02:54:41;;;;;;;2.45;1.60;;;21.70;73.20;;;;;;5098556;28;20420;-73
2021/07/18 02:57:07;;;;;;;2.45;1.70;;;21.70;73.20;;;;;;5098572;28;20391;-73
2021/07/18 02:59:33;;;;;;;3.85;1.90;;;21.70;73.20;;;;;;5097939;28;20134;-73
2021/07/18 03:02:00;;;;;;;3.30;1.65;;;21.80;73.30;;;;;;5098138;28;20043;-74
2021/07/18 03:04:26;;;;;;;3.55;1.80;;;21.70;73.20;;;;;;5097799;28;20158;-73
2021/07/18 03:06:53;;;;;;;3.55;1.65;;;21.70;73.30;;;;;;5097694;28;20119;-73
2021/07/18 03:09:23;;;;;;;2.40;1.73;;;21.70;73.30;;;;;;5098192;28;20126;-73
2021/07/18 03:11:51;;;;;;;2.75;2.00;;;21.70;73.30;;;;;;5097945;28;20403;-73
2021/07/18 03:14:18;;;;;;;2.75;1.60;;;21.70;73.30;;;;;;5097953;28;20051;-72
2021/07/18 03:16:45;;;;;;;3.47;1.67;;;21.70;73.30;;;;;;5098568;28;20174;-73
2021/07/18 03:19:12;;;;;;;1.88;1.63;;;21.70;73.30;;;;;;5097905;28;20035;-73
2021/07/18 03:21:38;;;;;;;2.97;2.25;;;21.70;73.30;;;;;;5097874;28;20119;-73
2021/07/18 03:24:04;;;;;;;3.00;1.60;;;21.70;73.30;;;;;;5097662;28;20170;-73
2021/07/18 03:26:30;;;;;;;3.00;1.63;;;21.70;73.30;;;;;;5097541;28;20335;-73
2021/07/18 03:28:56;;;;;;;2.05;1.70;;;21.70;73.30;;;;;;5097490;28;20123;-73
2021/07/18 03:31:22;;;;;;;2.38;1.50;;;21.70;73.30;;;;;;5097722;28;20044;-73
2021/07/18 03:33:47;;;;;;;2.45;1.55;;;21.70;73.30;;;;;;5097107;28;20040;-73
2021/07/18 03:36:14;;;;;;;1.92;1.40;;;21.70;73.20;;;;;;5097946;28;20039;-73
2021/07/18 03:38:40;;;;;;;2.47;1.60;;;21.70;73.30;;;;;;5097386;28;20335;-73
2021/07/18 03:41:06;;;;;;;4.03;1.80;;;21.70;73.30;;;;;;5097465;28;20095;-73
2021/07/18 03:43:32;;;;;;;2.35;1.10;;;21.70;73.30;;;;;;5097188;28;20071;-73
2021/07/18 03:45:58;;;;;;;5.05;2.05;;;21.70;73.30;;;;;;5097200;28;20055;-73
2021/07/18 03:48:24;;;;;;;2.53;1.50;;;21.70;73.30;;;;;;5096971;28;20044;-73
2021/07/18 03:50:50;;;;;;;3.10;1.60;;;21.70;73.30;;;;;;5097098;28;20044;-72
2021/07/18 03:53:17;;;;;;;1.65;1.38;;;21.70;73.20;;;;;;5097284;28;20056;-73
2021/07/18 03:55:43;;;;;;;3.38;1.88;;;21.70;73.20;;;;;;5096077;28;20412;-73
2021/07/18 03:58:09;;;;;;;2.20;1.45;;;21.70;73.20;;;;;;5097003;28;20068;-73
2021/07/18 04:00:35;;;;;;;3.22;1.52;;;21.60;73.10;;;;;;5096989;28;20040;-73
2021/07/18 04:03:01;;;;;;;2.00;1.35;;;21.60;73.10;;;;;;5096519;28;20043;-73
2021/07/18 04:05:27;;;;;;;2.33;1.50;;;21.60;73.10;;;;;;5096605;28;20047;-72
2021/07/18 04:07:53;;;;;;;2.55;1.40;;;21.60;73.10;;;;;;5096968;28;20040;-73
2021/07/18 04:10:20;;;;;;;2.20;1.30;;;21.60;73.10;;;;;;5096558;28;20426;-73
2021/07/18 04:12:49;;;;;;;2.35;1.55;;;21.60;73.10;;;;;;5096621;28;20113;-73
2021/07/18 04:15:16;;;;;;;2.60;1.48;;;21.60;73.10;;;;;;5096799;28;20169;-73
2021/07/18 04:17:41;;;;;;;2.95;1.83;;;21.60;73.10;;;;;;5096892;28;20043;-73
2021/07/18 04:20:08;;;;;;;1.63;1.38;;;21.60;73.10;;;;;;5096384;28;20320;-73
2021/07/18 04:22:33;;;;;;;2.08;1.33;;;21.60;73.10;;;;;;5096575;28;20058;-73
2021/07/18 04:24:59;;;;;;;5.25;2.03;;;21.60;73.10;;;;;;5096481;28;20036;-73
2021/07/18 04:27:25;;;;;;;1.88;1.20;;;21.60;73.10;;;;;;5096464;28;20440;-73
2021/07/18 04:29:51;;;;;;;3.30;1.38;;;21.60;73.20;;;;;;5096353;28;20073;-73
2021/07/18 04:32:17;;;;;;;1.83;1.38;;;21.60;73.20;;;;;;5096373;28;20462;-73
2021/07/18 04:34:43;;;;;;;2.97;1.42;;;21.60;73.20;;;;;;5096253;28;20047;-73
2021/07/18 04:37:12;;;;;;;2.22;1.17;;;21.60;73.20;;;;;;5096328;28;20040;-73
2021/07/18 04:39:39;;;;;;;2.67;1.35;;;21.60;73.20;;;;;;5096387;28;20066;-73
2021/07/18 04:42:05;;;;;;;2.13;1.38;;;21.60;73.20;;;;;;5096835;28;20048;-73
2021/07/18 04:44:32;;;;;;;2.17;1.30;;;21.60;73.20;;;;;;5095694;28;20336;-73
2021/07/18 04:46:59;;;;;;;1.85;1.20;;;21.60;73.20;;;;;;5095694;28;20051;-73
2021/07/18 04:49:26;;;;;;;3.42;1.50;;;21.60;73.20;;;;;;5095930;28;20051;-73
2021/07/18 04:51:56;;;;;;;2.00;1.42;;;21.60;73.20;;;;;;5096012;28;20070;-73
2021/07/18 04:54:22;;;;;;;2.15;1.35;;;21.60;73.80;;;;;;5095888;28;20074;-73
2021/07/18 04:56:48;;;;;;;1.80;1.40;;;21.60;73.30;;;;;;5096094;28;20105;-73
2021/07/18 04:59:14;;;;;;;2.10;1.40;;;21.60;73.30;;;;;;5095651;28;20036;-73
2021/07/18 05:01:40;;;;;;;3.38;1.55;;;21.60;73.30;;;;;;5096299;28;20048;-73
2021/07/18 05:04:05;;;;;;;1.88;1.50;;;21.60;73.30;;;;;;5095620;28;20376;-73
2021/07/18 05:06:32;;;;;;;2.35;1.48;;;21.60;73.30;;;;;;5095789;28;20048;-73
2021/07/18 05:08:57;;;;;;;2.22;1.30;;;21.60;73.30;;;;;;5095704;28;20043;-73
2021/07/18 05:11:23;;;;;;;2.20;1.92;;;21.60;73.30;;;;;;5095449;28;20044;-73
2021/07/18 05:13:52;;;;;;;2.05;1.30;;;21.60;73.30;;;;;;5095605;28;20047;-73
2021/07/18 05:16:19;;;;;;;3.03;1.60;;;21.60;73.30;;;;;;5096036;28;20039;-73
2021/07/18 05:18:46;;;;;;;2.97;1.48;;;21.60;73.40;;;;;;5095860;28;20311;-73
2021/07/18 05:21:12;;;;;;;1.88;1.35;;;21.60;73.40;;;;;;5095742;28;20039;-73
2021/07/18 05:23:37;;;;;;;2.60;1.63;;;21.60;74.00;;;;;;5095634;28;20378;-73
2021/07/18 05:26:03;;;;;;;2.15;1.50;;;21.60;73.40;;;;;;5095404;28;20059;-73
2021/07/18 05:28:29;;;;;;;1.90;1.30;;;21.60;73.40;;;;;;5095931;28;20051;-73
2021/07/18 05:30:55;;;;;;;2.17;1.25;;;21.60;73.40;;;;;;5095305;28;20488;-73
2021/07/18 05:33:21;;;;;;;2.25;1.33;;;21.60;73.30;;;;;;5095755;28;20101;-73
2021/07/18 05:35:47;;;;;;;2.53;1.40;;;21.60;73.30;;;;;;5095524;28;20077;-73
2021/07/18 05:38:13;;;;;;;1.52;1.13;;;21.60;73.30;;;;;;5096036;28;20121;-73
2021/07/18 05:40:39;;;;;;;2.38;1.30;;;21.60;73.30;;;;;;5095170;28;20078;-73
2021/07/18 05:43:05;;;;;;;1.30;1.17;;;21.60;73.30;;;;;;5095598;28;20389;-73
2021/07/18 05:45:31;;;;;;;2.13;1.30;;;21.60;73.20;;;;;;5095221;28;20040;-73
2021/07/18 05:47:57;;;;;;;2.63;1.23;;;21.60;73.20;;;;;;5095447;28;20060;-72
2021/07/18 05:50:23;;;;;;;1.70;1.00;;;21.60;73.20;;;;;;5095620;28;20064;-73
2021/07/18 05:52:49;;;;;;;1.95;1.27;;;21.60;73.20;;;;;;5095170;28;20058;-73
2021/07/18 05:55:15;;;;;;;2.00;1.30;;;21.60;73.20;;;;;;5095059;28;20052;-73
2021/07/18 05:57:41;;;;;;;1.23;1.02;;;21.60;73.20;;;;;;5095549;28;20059;-73
2021/07/18 06:00:12;;;;;;;2.72;1.15;;;21.60;73.20;;;;;;5095359;28;20032;-73
2021/07/18 06:02:39;;;;;;;1.38;1.10;;;21.60;73.20;;;;;;5095373;28;20118;-73
2021/07/18 06:05:06;;;;;;;1.30;0.98;;;21.60;73.20;;;;;;5095144;28;20115;-73
2021/07/18 06:07:32;;;;;;;1.92;1.17;;;21.60;73.20;;;;;;5095292;28;20040;-73
2021/07/18 06:09:58;;;;;;;1.83;1.25;;;21.60;73.20;;;;;;5095664;28;20500;-73
2021/07/18 06:12:24;;;;;;;1.92;1.20;;;21.60;73.20;;;;;;5095575;28;20234;-73
2021/07/18 06:14:50;;;;;;;1.95;1.00;;;21.60;73.20;;;;;;5095353;28;20040;-73
2021/07/18 06:17:16;;;;;;;2.75;1.10;;;21.70;73.20;;;;;;5094816;28;20047;-73
2021/07/18 06:19:42;;;;;;;2.33;1.20;;;21.70;73.20;;;;;;5098943;28;20040;-73
2021/07/18 06:22:08;;;;;;;1.95;1.00;;;21.70;73.20;;;;;;5099434;28;20047;-73
2021/07/18 06:24:34;;;;;;;1.92;0.90;;;21.70;73.20;;;;;;5099103;28;20059;-72
2021/07/18 06:27:02;;;;;;;2.80;1.38;;;21.70;73.80;;;;;;5098563;28;20040;-73
2021/07/18 06:29:28;;;;;;;4.25;1.60;;;21.70;73.20;;;;;;5098542;28;20048;-72
2021/07/18 06:31:54;;;;;;;1.23;1.02;;;21.70;73.20;;;;;;5098361;28;20058;-73
2021/07/18 06:34:24;;;;;;;2.08;1.20;;;21.70;73.10;;;;;;5098754;28;20047;-72
2021/07/18 06:36:49;;;;;;;2.78;1.30;;;21.70;73.00;;;;;;5098282;28;20036;-73
2021/07/18 06:39:15;;;;;;;1.30;1.10;;;21.70;73.00;;;;;;5098678;28;20048;-72
2021/07/18 06:41:42;;;;;;;1.70;1.20;;;21.70;72.90;;;;;;5098659;28;20063;-72
2021/07/18 06:44:07;;;;;;;2.20;1.10;;;21.80;72.90;;;;;;5098554;28;20050;-72
2021/07/18 06:46:33;;;;;;;2.60;1.55;;;21.80;72.90;;;;;;5098706;28;20127;-72
2021/07/18 06:49:00;;;;;;;1.60;1.20;;;21.80;72.80;;;;;;5098393;28;20048;-72
2021/07/18 06:51:28;;;;;;;1.77;1.30;;;21.80;72.80;;;;;;5098353;28;20091;-72
2021/07/18 06:53:54;;;;;;;1.23;1.10;;;21.90;73.50;;;;;;5098175;28;20451;-72
2021/07/18 06:56:20;;;;;;;2.30;1.20;;;21.80;72.90;;;;;;5098039;28;20048;-72
2021/07/18 06:58:45;;;;;;;1.65;1.20;;;21.90;72.90;;;;;;5098080;28;20032;-72
2021/07/18 07:01:11;;;;;;;1.88;1.20;;;21.90;72.90;;;;;;5098479;28;20313;-73
2021/07/18 07:03:37;;;;;;;2.08;1.30;;;21.90;72.90;;;;;;5098288;28;20054;-72
2021/07/18 07:06:03;;;;;;;1.83;1.08;;;22.00;73.00;;;;;;5097968;28;20052;-73
2021/07/18 07:08:30;;;;;;;2.08;1.15;;;22.00;73.00;;;;;;5098532;28;20051;-73
2021/07/18 07:11:00;;;;;;;1.15;1.00;;;21.90;73.00;;;;;;5098049;28;20095;-73
2021/07/18 07:13:34;;;;;;;2.78;1.50;;;22.00;73.10;;;;;;5098041;28;20044;-73
2021/07/18 07:16:00;;;;;;;1.98;1.10;;;22.00;73.10;;;;;;5097836;28;20036;-73
2021/07/18 07:18:26;;;;;;;1.48;1.23;;;22.00;73.20;;;;;;5097648;28;20047;-73
2021/07/18 07:20:52;;;;;;;2.33;1.30;;;22.00;73.20;;;;;;5097852;28;20040;-72
2021/07/18 07:23:18;;;;;;;2.47;1.20;;;22.00;73.30;;;;;;5098194;28;20056;-73
2021/07/18 07:25:43;;;;;;;1.90;1.20;;;22.00;73.30;;;;;;5097930;28;20452;-72
2021/07/18 07:28:09;;;;;;;2.85;1.60;;;22.00;73.30;;;;;;5097657;28;20373;-73
2021/07/18 07:30:36;;;;;;;1.35;1.20;;;22.10;73.40;;;;;;5096530;28;20124;-72
2021/07/18 07:33:03;;;;;;;2.10;1.15;;;22.00;73.40;;;;;;5097391;28;20051;-73
2021/07/18 07:35:31;;;;;;;2.45;1.25;;;22.00;73.40;;;;;;5097383;28;20056;-72
2021/07/18 07:37:57;;;;;;;1.73;1.27;;;22.10;73.50;;;;;;5097088;28;20093;-72
2021/07/18 07:40:24;;;;;;;1.95;1.20;;;22.10;73.50;;;;;;5097167;28;20115;-72
2021/07/18 07:42:50;;;;;;;1.70;1.23;;;22.10;73.50;;;;;;5097088;28;20044;-72
2021/07/18 07:45:16;;;;;;;2.03;1.17;;;22.10;73.50;;;;;;5097525;28;20058;-73
2021/07/18 07:47:42;;;;;;;2.97;1.42;;;22.10;73.50;;;;;;5097214;28;20040;-73
2021/07/18 07:50:11;;;;;;;2.03;1.40;;;22.10;73.60;;;;;;5097372;28;20132;-72
2021/07/18 07:52:37;;;;;;;2.60;1.30;;;22.10;73.60;;;;;;5097144;28;20101;-72
2021/07/18 07:55:04;;;;;;;1.60;1.27;;;22.10;73.60;;;;;;5096525;28;20048;-73
2021/07/18 07:57:32;;;;;;;3.28;1.42;;;22.10;73.60;;;;;;5096717;28;20050;-73
2021/07/18 08:00:17;;;;;;;2.95;1.20;;;22.10;73.60;;;;;;5097114;28;20109;-73
2021/07/18 08:02:46;;;;;;;1.65;1.20;;;22.10;73.70;;;;;;5097378;28;20044;-73
2021/07/18 08:05:12;;;;;;;2.22;1.30;;;22.20;73.70;;;;;;5096811;28;20405;-72
2021/07/18 08:07:39;;;;;;;1.58;1.08;;;22.20;73.80;;;;;;5096731;28;20119;-72
2021/07/18 08:10:09;;;;;;;1.75;1.23;;;22.20;73.80;;;;;;5097444;28;20097;-73
2021/07/18 08:12:35;;;;;;;1.30;1.08;;;22.20;73.80;;;;;;5096887;28;20063;-73
2021/07/18 08:15:01;;;;;;;2.28;1.13;;;22.20;73.80;;;;;;5096773;28;20078;-73
2021/07/18 08:17:28;;;;;;;1.90;1.10;;;22.20;73.80;;;;;;5097099;28;20051;-73
2021/07/18 08:19:54;;;;;;;2.15;1.20;;;22.20;73.80;;;;;;5096593;28;20055;-73
2021/07/18 08:22:20;;;;;;;1.60;1.00;;;22.20;73.90;;;;;;5096515;28;20044;-73
2021/07/18 08:24:47;;;;;;;1.80;1.10;;;22.30;73.90;;;;;;5096809;28;20121;-72
2021/07/18 08:27:13;;;;;;;2.05;1.10;;;22.20;73.90;;;;;;5096681;28;20040;-73
2021/07/18 08:29:39;;;;;;;2.10;1.20;;;22.30;73.90;;;;;;5096466;28;20055;-73
2021/07/18 08:32:05;;;;;;;1.85;1.20;;;22.30;73.90;;;;;;5096127;28;20040;-73
2021/07/18 08:34:31;;;;;;;1.52;1.00;;;22.30;73.80;;;;;;5096235;28;20043;-73
2021/07/18 08:36:57;;;;;;;1.40;1.00;;;22.30;73.80;;;;;;5096704;28;20044;-73
2021/07/18 08:39:24;;;;;;;2.08;1.10;;;22.30;73.80;;;;;;5096895;28;20071;-73
2021/07/18 08:41:53;;;;;;;1.15;0.93;;;22.30;73.80;;;;;;5096096;28;20047;-73
2021/07/18 08:44:20;;;;;;;1.60;1.10;;;22.40;73.90;;;;;;5096422;28;20353;-73
2021/07/18 08:46:46;;;;;;;1.20;0.90;;;22.40;73.90;;;;;;5096008;28;20114;-73
2021/07/18 08:49:12;;;;;;;1.85;1.30;;;22.40;73.80;;;;;;5096287;28;20128;-72
2021/07/18 08:51:38;;;;;;;2.72;1.35;;;22.40;74.50;;;;;;5095884;28;20131;-73
2021/07/18 08:54:05;;;;;;;1.25;1.13;;;22.40;73.80;;;;;;5096118;28;20036;-73
2021/07/18 08:56:32;;;;;;;2.72;1.25;;;22.40;73.80;;;;;;5095840;28;20051;-73
2021/07/18 08:59:10;;;;;;;2.08;0.90;;;22.40;73.80;;;;;;5096592;28;20044;-73
2021/07/18 09:01:41;;;;;;;2.65;1.20;;;22.40;73.80;;;;;;5096332;28;20040;-73
2021/07/18 09:04:07;;;;;;;1.77;1.20;;;22.40;73.80;;;;;;5095983;28;20040;-73
2021/07/18 09:06:51;;;;;;;2.03;1.20;;;22.50;73.80;;;;;;5095915;28;20036;-72
2021/07/18 09:09:21;;;;;;;1.60;1.02;;;22.50;73.80;;;;;;5095900;28;20339;-73
2021/07/18 09:12:08;;;;;;;1.65;1.00;;;22.40;73.70;;;;;;5095554;28;20044;-73
2021/07/18 09:14:39;;;;;;;2.25;1.40;;;22.50;73.80;;;;;;5095223;28;20044;-73
2021/07/18 09:17:10;;;;;;;1.27;1.17;;;22.50;73.80;;;;;;5095938;28;20040;-73
2021/07/18 09:19:37;;;;;;;1.70;0.95;;;22.50;73.80;;;;;;5095736;28;20066;-73
2021/07/18 09:22:03;;;;;;;3.05;1.40;;;22.50;73.80;;;;;;5095973;28;20115;-73
2021/07/18 09:24:36;;;;;;;2.58;1.38;;;22.50;73.80;;;;;;5095391;28;20127;-73
2021/07/18 09:27:16;;;;;;;1.30;1.00;;;22.50;73.80;;;;;;5095295;28;20032;-73
2021/07/18 09:30:05;;;;;;;1.77;1.00;;;22.50;73.70;;;;;;5095717;28;20123;-73
2021/07/18 09:32:34;;;;;;;1.92;0.90;;;22.50;73.80;;;;;;5095303;28;20051;-73
2021/07/18 09:35:10;;;;;;;1.15;0.98;;;22.50;73.80;;;;;;5095940;28;20377;-72
2021/07/18 09:37:42;;;;;;;1.35;1.02;;;22.50;73.70;;;;;;5095855;28;20343;-73
2021/07/18 09:40:14;;;;;;;2.03;1.23;;;22.50;73.70;;;;;;5096093;28;20062;-73
2021/07/18 09:42:42;;;;;;;1.98;1.13;;;22.60;73.80;;;;;;5095369;28;20050;-72
2021/07/18 09:45:11;;;;;;;1.40;0.98;;;22.60;73.80;;;;;;5095167;28;20097;-73
2021/07/18 09:48:00;;;;;;;1.85;1.17;;;22.60;73.80;;;;;;5095483;28;20150;-73
2021/07/18 09:50:31;;;;;;;1.50;1.10;;;22.60;73.70;;;;;;5095526;28;20052;-73
2021/07/18 09:53:19;;;;;;;2.45;1.10;;;22.60;73.70;;;;;;5096243;28;20478;-73
2021/07/18 09:56:20;;;;;;;1.50;1.20;;;22.70;73.80;;;;;;5099279;28;20055;-73
2021/07/18 09:58:57;;;;;;;2.88;0.98;;;22.60;73.70;;;;;;4998132;28;20039;-73
2021/07/18 10:01:23;;;;;;;1.20;0.80;;;22.60;73.70;;;;;;5085652;28;20189;-73
2021/07/18 10:03:51;;;;;;;1.50;1.02;;;22.60;73.70;;;;;;5099040;28;20048;-73
2021/07/18 10:06:19;;;;;;;2.00;1.20;;;22.70;73.70;;;;;;5099032;28;20047;-73
2021/07/18 10:08:53;;;;;;;1.50;1.30;;;22.70;73.70;;;;;;5099176;28;20040;-73
2021/07/18 10:11:21;;;;;;;2.25;1.20;;;22.70;73.70;;;;;;5099254;28;20044;-73
2021/07/18 10:13:49;;;;;;;2.38;1.30;;;22.70;73.70;;;;;;5099240;28;20047;-74
2021/07/18 10:16:20;;;;;;;1.67;1.20;;;22.70;73.70;;;;;;5098826;28;20039;-73
2021/07/18 10:18:48;;;;;;;2.65;1.20;;;22.70;73.60;;;;;;5099372;28;20044;-73
2021/07/18 10:21:18;;;;;;;2.78;1.00;;;22.70;73.70;;;;;;5099080;28;20044;-72
2021/07/18 10:23:45;;;;;;;2.15;0.90;;;22.70;73.60;;;;;;5099037;28;20032;-73
2021/07/18 10:26:20;;;;;;;2.08;1.50;;;22.70;73.60;;;;;;5098291;28;20068;-73
2021/07/18 10:28:47;;;;;;;2.08;1.25;;;22.70;74.10;;;;;;5098390;28;20188;-73
2021/07/18 10:31:44;;;;;;;1.80;1.10;;;22.70;73.50;;;;;;5098788;28;20090;-73
2021/07/18 10:34:11;;;;;;;4.88;1.52;;;22.70;73.50;;;;;;5098686;28;20340;-73
2021/07/18 10:36:37;;;;;;;1.70;0.98;;;22.70;73.50;;;;;;5098797;28;20354;-74
2021/07/18 10:39:30;;;;;;;2.72;1.27;;;22.70;73.50;;;;;;5099186;28;20036;-73
2021/07/18 10:41:57;;;;;;;2.13;1.35;;;22.70;73.40;;;;;;5098548;28;20119;-73
2021/07/18 10:44:24;;;;;;;2.70;1.52;;;22.70;73.40;;;;;;5098290;28;20123;-73
2021/07/18 10:46:56;;;;;;;1.83;1.38;;;22.80;73.50;;;;;;5098774;28;20055;-73
2021/07/18 10:49:48;;;;;;;1.65;1.30;;;22.70;73.40;;;;;;5097752;28;20036;-73
2021/07/18 10:52:14;;;;;;;2.00;1.10;;;22.80;73.40;;;;;;5098266;28;20040;-73
2021/07/18 10:54:43;;;;;;;1.65;1.20;;;22.80;73.40;;;;;;5098059;28;20425;-73
2021/07/18 10:57:21;;;;;;;2.40;1.50;;;22.70;73.40;;;;;;5098257;28;20522;-73
2021/07/18 10:59:47;;;;;;;2.85;1.48;;;22.80;73.40;;;;;;5098249;28;20040;-73
2021/07/18 11:02:19;;;;;;;2.05;1.40;;;22.80;73.40;;;;;;5097982;28;20048;-73
2021/07/18 11:04:49;;;;;;;2.25;1.00;;;22.80;73.30;;;;;;5098219;28;20047;-73
2021/07/18 11:07:21;;;;;;;1.92;1.30;;;22.80;73.40;;;;;;5098150;28;20040;-73
2021/07/18 11:09:51;;;;;;;2.15;1.10;;;22.80;73.30;;;;;;5098073;28;20043;-73
2021/07/18 11:12:34;;;;;;;2.45;1.25;;;22.80;73.30;;;;;;5097568;28;20044;-73
2021/07/18 11:15:19;;;;;;;1.98;1.13;;;22.80;73.30;;;;;;5098181;28;20048;-73
2021/07/18 11:18:12;;;;;;;1.45;1.13;;;22.80;73.30;;;;;;5098394;28;20036;-73
2021/07/18 11:20:56;;;;;;;2.00;1.35;;;22.80;73.20;;;;;;5097846;28;20043;-73
2021/07/18 11:23:30;;;;;;;2.38;1.50;;;22.80;73.30;;;;;;5097590;28;20040;-73
2021/07/18 11:26:02;;;;;;;2.55;1.45;;;22.80;73.20;;;;;;5098048;28;20164;-73
2021/07/18 11:28:30;;;;;;;3.03;1.25;;;22.80;73.20;;;;;;5097602;28;20044;-73
2021/07/18 11:31:27;;;;;;;1.73;1.40;;;22.80;73.20;;;;;;5097827;28;20402;-74
2021/07/18 11:33:54;;;;;;;2.25;1.50;;;22.80;73.20;;;;;;5077183;28;20051;-73
2021/07/18 11:36:39;;;;;;;2.22;1.10;;;22.80;73.20;;;;;;5097336;28;20409;-73
2021/07/18 11:39:16;;;;;;;2.88;1.20;;;22.80;73.20;;;;;;5096943;28;20039;-73
2021/07/18 11:41:42;;;;;;;1.58;1.23;;;22.80;73.10;;;;;;5098178;28;20104;-73
2021/07/18 11:44:09;;;;;;;3.78;1.55;;;22.80;73.20;;;;;;5097345;28;20043;-73
2021/07/18 11:46:38;;;;;;;2.83;1.65;;;22.80;73.10;;;;;;5097299;28;20118;-73
2021/07/18 11:49:05;;;;;;;2.63;1.50;;;22.80;73.10;;;;;;5097398;28;20032;-73
2021/07/18 11:51:34;;;;;;;1.85;1.25;;;22.80;73.10;;;;;;5096937;28;20067;-73
2021/07/18 11:54:00;;;;;;;2.17;1.40;;;22.80;73.10;;;;;;5097224;28;20044;-73
2021/07/18 11:56:37;;;;;;;2.50;1.50;;;22.80;73.10;;;;;;5096831;28;20132;-72
2021/07/18 11:59:10;;;;;;;2.20;1.20;;;22.80;73.10;;;;;;5096890;28;20043;-73
2021/07/18 12:01:38;;;;;;;2.55;1.30;;;22.80;73.10;;;;;;5097058;28;20488;-73
2021/07/18 12:04:07;;;;;;;2.63;1.30;;;22.80;73.00;;;;;;5097106;28;20051;-73
2021/07/18 12:06:33;;;;;;;3.85;1.70;;;22.80;73.10;;;;;;5097046;28;20036;-73
2021/07/18 12:09:10;;;;;;;3.13;1.58;;;22.80;73.00;;;;;;5097070;28;20433;-73
2021/07/18 12:11:37;;;;;;;2.55;1.35;;;22.90;73.00;;;;;;5096641;28;20035;-73
2021/07/18 12:14:04;;;;;;;3.38;1.52;;;22.80;73.00;;;;;;5096786;28;20493;-73
2021/07/18 12:16:30;;;;;;;1.63;1.25;;;22.80;73.00;;;;;;5096717;28;20036;-73
2021/07/18 12:18:56;;;;;;;2.25;1.60;;;22.90;73.00;;;;;;5096758;28;20042;-74
2021/07/18 12:21:26;;;;;;;1.95;1.20;;;22.90;73.00;;;;;;5096840;28;20055;-73
2021/07/18 12:24:20;;;;;;;2.03;1.30;;;22.90;73.00;;;;;;5096440;28;20415;-73
2021/07/18 12:27:02;;;;;;;3.05;1.67;;;22.90;72.90;;;;;;5096584;28;20492;-73
2021/07/18 12:29:38;;;;;;;2.67;1.75;;;22.90;72.90;;;;;;5096242;28;20431;-73
2021/07/18 12:32:08;;;;;;;2.65;1.30;;;22.90;72.90;;;;;;5096766;28;20078;-73
2021/07/18 12:34:38;;;;;;;2.40;1.45;;;22.90;72.90;;;;;;5096304;28;20036;-73
2021/07/18 12:37:09;;;;;;;2.55;1.80;;;22.90;72.80;;;;;;5096212;28;20405;-73
2021/07/18 12:39:36;;;;;;;1.70;1.42;;;22.90;72.90;;;;;;5096326;28;20449;-73
2021/07/18 12:42:05;;;;;;;4.97;1.77;;;22.90;72.80;;;;;;5096400;28;20460;-73
2021/07/18 12:44:36;;;;;;;2.72;1.48;;;22.80;72.80;;;;;;5096682;28;20048;-73
2021/07/18 12:47:32;;;;;;;3.35;1.60;;;22.90;72.90;;;;;;5096237;28;20047;-73
2021/07/18 12:50:03;;;;;;;4.10;1.70;;;22.90;72.80;;;;;;5096385;28;20048;-73
2021/07/18 12:52:29;;;;;;;2.55;1.70;;;22.90;72.80;;;;;;5095798;28;20377;-73
2021/07/18 12:54:55;;;;;;;2.78;1.50;;;22.90;72.80;;;;;;5096425;28;20051;-73